Time;durP1;ratioP1;P1;durP2;ratioP2;P2;SDS_P1;SDS_P2;PMS_P1;PMS_P2;Temp;Humidity;BMP_temperature;BMP_pressure;BME280_temperature;BME280_humidity;BME280_pressure;Samples;Min_cycle;Max_cycle;Signal;HPM_P1;HPM_P2
2023/09/16 00:01:08;;;;;;;13.90;5.10;;;;;;;;;;5064626;28;20037;-90
2023/09/16 00:03:35;;;;;;;7.03;4.65;;;;;;;;;;5058921;28;20029;-89
2023/09/16 00:06:02;;;;;;;8.30;4.72;;;;;;;;;;5060414;28;20112;-90
2023/09/16 00:08:28;;;;;;;12.68;5.80;;;;;;;;;;5060024;28;20033;-91
2023/09/16 00:10:54;;;;;;;8.68;4.95;;;;;;;;;;5069837;28;20052;-89
2023/09/16 00:13:20;;;;;;;7.68;4.60;;;;;;;;;;5079976;28;20025;-89
2023/09/16 00:15:48;;;;;;;8.50;4.55;;;;;;;;;;5074694;28;20066;-90
2023/09/16 00:18:15;;;;;;;6.10;4.93;;;;;;;;;;5058873;28;20112;-90
2023/09/16 00:20:41;;;;;;;7.43;4.85;;;;;;;;;;5064568;28;20035;-89
2023/09/16 00:23:07;;;;;;;7.60;4.22;;;;;;;;;;5070805;28;20035;-90
2023/09/16 00:25:33;;;;;;;6.88;5.05;;;;;;;;;;5063639;28;20017;-90
2023/09/16 00:27:59;;;;;;;7.00;4.95;;;;;;;;;;5078871;28;20036;-90
2023/09/16 00:30:26;;;;;;;11.73;5.40;;;;;;;;;;5078630;28;20024;-90
2023/09/16 00:32:52;;;;;;;8.00;5.50;;;;;;;;;;5079438;28;20024;-90
2023/09/16 00:35:19;;;;;;;6.63;5.45;;;;;;;;;;5078683;28;20020;-90
2023/09/16 00:37:46;;;;;;;10.48;5.57;;;;;;;;;;5075813;28;20013;-89
2023/09/16 00:40:13;;;;;;;11.55;5.40;;;;;;;;;;5065370;28;20020;-91
2023/09/16 00:42:40;;;;;;;7.70;5.18;;;;;;;;;;5079834;28;20056;-89
2023/09/16 00:45:07;;;;;;;8.20;5.55;;;;;;;;;;5078595;28;20082;-90
2023/09/16 00:47:33;;;;;;;9.55;5.18;;;;;;;;;;5078738;28;20031;-91
2023/09/16 00:50:00;;;;;;;11.45;5.38;;;;;;;;;;5073613;28;20367;-89
2023/09/16 00:52:26;;;;;;;7.72;5.07;;;;;;;;;;5059233;28;20421;-90
2023/09/16 00:54:54;;;;;;;8.93;4.82;;;;;;;;;;5058475;28;20029;-91
2023/09/16 00:57:20;;;;;;;8.52;4.70;;;;;;;;;;5058264;28;20025;-92
2023/09/16 00:59:46;;;;;;;12.07;5.75;;;;;;;;;;5061736;28;20029;-92
2023/09/16 01:02:14;;;;;;;6.60;5.30;;;;;;;;;;5078197;28;20040;-92
2023/09/16 01:04:41;;;;;;;10.75;4.97;;;;;;;;;;5059252;28;20108;-92
2023/09/16 01:07:07;;;;;;;7.22;5.40;;;;;;;;;;5059013;28;20032;-92
2023/09/16 01:09:52;;;;;;;7.95;5.00;;;;;;;;;;5058856;28;20115;-94
2023/09/16 01:12:18;;;;;;;7.85;4.97;;;;;;;;;;5058601;28;20041;-92
2023/09/16 01:14:44;;;;;;;10.75;5.78;;;;;;;;;;5058032;28;20037;-93
2023/09/16 01:17:15;;;;;;;9.63;4.93;;;;;;;;;;5058033;28;20024;-92
2023/09/16 01:19:45;;;;;;;8.05;4.53;;;;;;;;;;5057863;28;20398;-92
2023/09/16 01:22:11;;;;;;;6.13;4.47;;;;;;;;;;5058787;28;20331;-92
2023/09/16 01:24:37;;;;;;;8.38;5.10;;;;;;;;;;5059008;28;20033;-92
2023/09/16 01:27:03;;;;;;;7.68;5.10;;;;;;;;;;5060680;28;20115;-92
2023/09/16 01:29:30;;;;;;;5.65;5.00;;;;;;;;;;5078810;28;20066;-90
2023/09/16 01:32:00;;;;;;;9.82;5.10;;;;;;;;;;5059920;28;20104;-90
2023/09/16 01:34:52;;;;;;;11.43;4.90;;;;;;;;;;5058379;28;20029;-89
2023/09/16 01:37:23;;;;;;;11.23;5.10;;;;;;;;;;5062005;28;20033;-90
2023/09/16 01:40:12;;;;;;;6.30;4.60;;;;;;;;;;5060489;28;20415;-90
2023/09/16 01:42:39;;;;;;;5.82;4.63;;;;;;;;;;5073749;28;20067;-89
2023/09/16 01:45:07;;;;;;;6.78;5.07;;;;;;;;;;5058278;28;20399;-90
2023/09/16 01:47:33;;;;;;;7.38;5.00;;;;;;;;;;5056924;28;20043;-90
2023/09/16 01:49:59;;;;;;;5.90;5.30;;;;;;;;;;5057296;28;20049;-89
2023/09/16 01:52:25;;;;;;;9.05;5.50;;;;;;;;;;5057113;28;20021;-89
2023/09/16 01:54:51;;;;;;;10.05;5.97;;;;;;;;;;5057233;28;20028;-90
2023/09/16 01:57:17;;;;;;;8.55;5.72;;;;;;;;;;5059290;28;20082;-89
2023/09/16 01:59:43;;;;;;;8.82;5.85;;;;;;;;;;5077637;28;20029;-89
2023/09/16 02:02:11;;;;;;;8.23;6.13;;;;;;;;;;5077880;28;20107;-90
2023/09/16 02:04:38;;;;;;;10.85;6.00;;;;;;;;;;5077043;28;20032;-90
2023/09/16 02:07:04;;;;;;;8.02;5.78;;;;;;;;;;5065086;28;20032;-90
2023/09/16 02:09:31;;;;;;;6.80;5.82;;;;;;;;;;5056809;28;20089;-89
2023/09/16 02:11:57;;;;;;;11.32;6.30;;;;;;;;;;5057813;28;20041;-88
2023/09/16 02:14:23;;;;;;;8.57;6.28;;;;;;;;;;5058087;28;20024;-89
2023/09/16 02:16:49;;;;;;;8.73;6.47;;;;;;;;;;5057251;28;20025;-89
2023/09/16 02:19:15;;;;;;;8.88;6.13;;;;;;;;;;5057007;28;20188;-90
2023/09/16 02:21:41;;;;;;;9.18;6.45;;;;;;;;;;5056606;28;20029;-92
2023/09/16 02:27:12;;;;;;;7.53;6.03;;;;;;;;;;5071800;28;20035;-91
2023/09/16 02:29:38;;;;;;;10.20;6.53;;;;;;;;;;5057284;28;20028;-90
2023/09/16 02:32:04;;;;;;;13.18;6.95;;;;;;;;;;5076502;28;20028;-89
2023/09/16 02:34:35;;;;;;;12.75;6.88;;;;;;;;;;5076753;28;20036;-90
2023/09/16 02:37:01;;;;;;;7.40;6.07;;;;;;;;;;5059524;28;20029;-89
2023/09/16 02:40:04;;;;;;;14.10;7.20;;;;;;;;;;5056646;28;20033;-89
2023/09/16 02:42:30;;;;;;;11.35;6.60;;;;;;;;;;5067863;28;20096;-91
2023/09/16 02:44:57;;;;;;;8.55;5.68;;;;;;;;;;5056440;28;20299;-90
2023/09/16 02:47:23;;;;;;;8.20;5.43;;;;;;;;;;5056437;28;20021;-90
2023/09/16 02:49:49;;;;;;;6.75;5.20;;;;;;;;;;5056367;28;20025;-91
2023/09/16 02:52:15;;;;;;;10.18;5.60;;;;;;;;;;5061817;28;20041;-91
2023/09/16 02:54:42;;;;;;;6.68;5.68;;;;;;;;;;5065641;28;20052;-91
2023/09/16 02:57:08;;;;;;;9.48;6.30;;;;;;;;;;5072890;28;20062;-92
2023/09/16 02:59:34;;;;;;;14.27;6.03;;;;;;;;;;5075710;28;20108;-91
2023/09/16 03:02:00;;;;;;;7.15;5.85;;;;;;;;;;5056418;28;20029;-91
2023/09/16 03:04:26;;;;;;;11.57;5.88;;;;;;;;;;5072008;28;20025;-90
2023/09/16 03:06:52;;;;;;;7.75;6.55;;;;;;;;;;5077218;28;20058;-90
2023/09/16 03:09:19;;;;;;;9.23;7.03;;;;;;;;;;5072578;28;20051;-91
2023/09/16 03:11:45;;;;;;;9.07;7.45;;;;;;;;;;5056985;28;20049;-90
2023/09/16 03:14:11;;;;;;;12.75;7.10;;;;;;;;;;5056381;28;20035;-91
2023/09/16 03:16:37;;;;;;;10.15;6.80;;;;;;;;;;5056152;28;20024;-91
2023/09/16 03:19:04;;;;;;;7.32;6.18;;;;;;;;;;5057505;28;20462;-90
2023/09/16 03:21:30;;;;;;;10.07;7.07;;;;;;;;;;5058617;28;20037;-90
2023/09/16 03:23:56;;;;;;;12.27;7.03;;;;;;;;;;5058138;28;20052;-91
2023/09/16 03:26:22;;;;;;;9.13;7.03;;;;;;;;;;5056219;28;20070;-92
2023/09/16 03:28:48;;;;;;;8.90;7.18;;;;;;;;;;5058076;28;20017;-89
2023/09/16 03:31:15;;;;;;;9.65;6.88;;;;;;;;;;5079521;28;20453;-90
2023/09/16 03:33:41;;;;;;;7.80;6.60;;;;;;;;;;5059980;28;20037;-90
2023/09/16 03:36:07;;;;;;;10.45;8.00;;;;;;;;;;5059903;28;20021;-87
2023/09/16 03:41:37;;;;;;;9.68;7.50;;;;;;;;;;5060607;28;20055;-89
2023/09/16 03:44:04;;;;;;;14.68;8.25;;;;;;;;;;5059862;28;20045;-88
2023/09/16 03:46:31;;;;;;;13.90;8.02;;;;;;;;;;5060603;28;20482;-88
2023/09/16 03:48:57;;;;;;;9.93;7.75;;;;;;;;;;5059461;28;20037;-87
2023/09/16 03:51:26;;;;;;;9.63;7.40;;;;;;;;;;5060226;28;20083;-88
2023/09/16 03:53:53;;;;;;;12.45;7.88;;;;;;;;;;5080397;28;20025;-87
2023/09/16 03:56:19;;;;;;;13.80;8.13;;;;;;;;;;5079683;28;20032;-88
2023/09/16 03:58:45;;;;;;;12.02;8.43;;;;;;;;;;5079283;28;20052;-88
2023/09/16 04:01:11;;;;;;;11.18;8.13;;;;;;;;;;5079519;28;20406;-88
2023/09/16 04:03:37;;;;;;;15.32;7.55;;;;;;;;;;5079963;28;20020;-88
2023/09/16 04:06:04;;;;;;;12.45;7.68;;;;;;;;;;5079945;28;20028;-88
2023/09/16 04:08:31;;;;;;;14.93;6.90;;;;;;;;;;5079220;28;20040;-88
2023/09/16 04:11:29;;;;;;;10.18;7.20;;;;;;;;;;5069194;28;20064;-87
2023/09/16 04:13:55;;;;;;;12.65;7.30;;;;;;;;;;5079116;28;20051;-87
2023/09/16 04:16:21;;;;;;;11.18;7.75;;;;;;;;;;5079782;28;20108;-87
2023/09/16 04:18:48;;;;;;;17.40;8.60;;;;;;;;;;5079142;28;20406;-88
2023/09/16 04:21:14;;;;;;;17.83;8.07;;;;;;;;;;5080117;28;20016;-87
2023/09/16 04:23:40;;;;;;;20.25;8.15;;;;;;;;;;5079847;28;20040;-87
2023/09/16 04:29:10;;;;;;;13.07;8.55;;;;;;;;;;5080168;28;20055;-88
2023/09/16 04:31:36;;;;;;;16.15;8.60;;;;;;;;;;5079750;28;20058;-88
2023/09/16 04:34:03;;;;;;;14.93;8.68;;;;;;;;;;5079406;28;20045;-88
2023/09/16 04:36:29;;;;;;;12.25;8.85;;;;;;;;;;5078511;28;20437;-88
2023/09/16 04:38:55;;;;;;;11.48;8.65;;;;;;;;;;5079233;28;20033;-88
2023/09/16 04:41:21;;;;;;;10.93;8.18;;;;;;;;;;5059260;28;20044;-88
2023/09/16 04:43:49;;;;;;;15.32;8.88;;;;;;;;;;5062342;28;20387;-88
2023/09/16 04:46:19;;;;;;;12.13;8.40;;;;;;;;;;5058645;28;20387;-88
2023/09/16 04:48:46;;;;;;;14.93;8.95;;;;;;;;;;5058591;28;20075;-88
2023/09/16 04:51:12;;;;;;;11.55;8.18;;;;;;;;;;5059338;28;20060;-88
2023/09/16 04:53:38;;;;;;;14.25;9.07;;;;;;;;;;5067965;28;20029;-88
2023/09/16 04:56:24;;;;;;;17.02;8.85;;;;;;;;;;5078193;28;20021;-88
2023/09/16 04:58:50;;;;;;;11.40;8.80;;;;;;;;;;5076134;28;20036;-88
2023/09/16 05:01:16;;;;;;;19.05;8.65;;;;;;;;;;5058280;28;20032;-88
2023/09/16 05:03:42;;;;;;;13.75;8.82;;;;;;;;;;5059089;28;20438;-88
2023/09/16 05:06:08;;;;;;;16.33;9.32;;;;;;;;;;5058102;28;20025;-88
2023/09/16 05:08:34;;;;;;;20.45;10.68;;;;;;;;;;5059826;28;20036;-88
2023/09/16 05:11:00;;;;;;;18.10;11.32;;;;;;;;;;5078082;28;20043;-88
2023/09/16 05:13:26;;;;;;;20.35;12.07;;;;;;;;;;5077960;28;20042;-88
2023/09/16 05:15:52;;;;;;;16.00;11.52;;;;;;;;;;5077772;28;20051;-87
2023/09/16 05:18:18;;;;;;;21.58;12.55;;;;;;;;;;5076003;28;20044;-86
2023/09/16 05:20:44;;;;;;;22.02;11.95;;;;;;;;;;5058562;28;20043;-87
2023/09/16 05:23:13;;;;;;;17.52;11.88;;;;;;;;;;5059092;28;20029;-86
2023/09/16 05:25:48;;;;;;;16.73;11.85;;;;;;;;;;5058716;28;20407;-87
2023/09/16 05:28:15;;;;;;;22.40;11.82;;;;;;;;;;5059949;28;20025;-87
2023/09/16 05:30:42;;;;;;;14.52;11.30;;;;;;;;;;5058608;28;20073;-87
2023/09/16 05:33:10;;;;;;;17.52;10.75;;;;;;;;;;5058780;28;20054;-91
2023/09/16 05:35:36;;;;;;;15.30;10.13;;;;;;;;;;5059711;28;20083;-91
2023/09/16 05:38:02;;;;;;;13.85;10.07;;;;;;;;;;5057751;28;20067;-91
2023/09/16 05:40:28;;;;;;;18.83;10.50;;;;;;;;;;5058640;28;20025;-92
2023/09/16 05:42:54;;;;;;;16.08;10.50;;;;;;;;;;5072460;28;20017;-93
2023/09/16 05:45:21;;;;;;;15.13;10.15;;;;;;;;;;5057589;28;20017;-92
2023/09/16 05:47:49;;;;;;;16.80;10.05;;;;;;;;;;5057364;28;20029;-93
2023/09/16 05:50:15;;;;;;;16.95;9.75;;;;;;;;;;5057425;28;20025;-92
2023/09/16 05:52:41;;;;;;;19.17;9.90;;;;;;;;;;5060310;28;20055;-92
2023/09/16 05:55:08;;;;;;;18.25;10.95;;;;;;;;;;5077950;28;20025;-92
2023/09/16 05:57:34;;;;;;;17.40;10.18;;;;;;;;;;5078118;28;20307;-94
2023/09/16 06:00:01;;;;;;;20.77;16.98;;;;;;;;;;5072418;28;20024;-89
2023/09/16 06:02:27;;;;;;;23.05;13.93;;;;;;;;;;5057580;28;20025;-91
2023/09/16 06:04:53;;;;;;;17.30;11.80;;;;;;;;;;5068816;28;20055;-93
2023/09/16 06:07:19;;;;;;;17.52;11.93;;;;;;;;;;5077192;28;20119;-92
2023/09/16 06:09:45;;;;;;;17.45;13.00;;;;;;;;;;5076521;28;20069;-93
2023/09/16 06:12:11;;;;;;;19.67;12.38;;;;;;;;;;5056798;28;20049;-83
2023/09/16 06:14:39;;;;;;;27.48;13.30;;;;;;;;;;5057727;28;20391;-83
2023/09/16 06:17:05;;;;;;;22.60;14.30;;;;;;;;;;5057752;28;20424;-83
2023/09/16 06:19:32;;;;;;;27.13;13.90;;;;;;;;;;5057686;28;20361;-83
2023/09/16 06:21:58;;;;;;;18.02;13.95;;;;;;;;;;5058654;28;20037;-83
2023/09/16 06:27:28;;;;;;;19.50;13.57;;;;;;;;;;5069820;28;20039;-83
2023/09/16 06:29:54;;;;;;;21.42;13.57;;;;;;;;;;5060721;28;20029;-83
2023/09/16 06:32:21;;;;;;;17.27;13.95;;;;;;;;;;5055913;28;20044;-82
2023/09/16 06:34:47;;;;;;;16.38;14.25;;;;;;;;;;5056249;28;20068;-83
2023/09/16 06:37:13;;;;;;;17.05;13.48;;;;;;;;;;5055932;28;20082;-83
2023/09/16 06:39:40;;;;;;;22.27;14.32;;;;;;;;;;5062965;28;20032;-84
2023/09/16 06:42:06;;;;;;;17.90;13.50;;;;;;;;;;5061472;28;20033;-84
2023/09/16 06:44:32;;;;;;;18.08;14.13;;;;;;;;;;5071847;28;20374;-83
2023/09/16 06:46:58;;;;;;;20.45;13.45;;;;;;;;;;5076239;28;20028;-84
2023/09/16 06:49:24;;;;;;;19.13;14.10;;;;;;;;;;5056791;28;20025;-84
2023/09/16 06:51:50;;;;;;;17.95;13.80;;;;;;;;;;5070786;28;20071;-84
2023/09/16 06:54:16;;;;;;;19.30;13.50;;;;;;;;;;5064631;28;20359;-83
2023/09/16 06:56:42;;;;;;;18.85;13.40;;;;;;;;;;5076315;28;20414;-84
2023/09/16 06:59:08;;;;;;;19.50;13.18;;;;;;;;;;5064654;28;20391;-84
2023/09/16 07:01:34;;;;;;;18.98;13.20;;;;;;;;;;5065081;28;20029;-84
2023/09/16 07:04:01;;;;;;;19.05;13.73;;;;;;;;;;5069863;28;20055;-84
2023/09/16 07:06:27;;;;;;;18.73;12.80;;;;;;;;;;5079960;28;20040;-84
2023/09/16 07:08:53;;;;;;;15.18;12.05;;;;;;;;;;5079891;28;20040;-83
2023/09/16 07:14:22;;;;;;;15.73;12.65;;;;;;;;;;5063526;28;20043;-85
2023/09/16 07:16:48;;;;;;;16.92;11.95;;;;;;;;;;5061270;28;20033;-84
2023/09/16 07:19:15;;;;;;;13.00;10.98;;;;;;;;;;5059987;28;20024;-85
2023/09/16 07:21:41;;;;;;;15.52;11.60;;;;;;;;;;5059019;28;20167;-85
2023/09/16 07:24:07;;;;;;;16.65;11.98;;;;;;;;;;5071357;28;20061;-88
2023/09/16 07:29:37;;;;;;;15.05;10.68;;;;;;;;;;5081140;28;20035;-87
2023/09/16 07:32:03;;;;;;;14.52;10.88;;;;;;;;;;5079259;28;20136;-86
2023/09/16 07:34:29;;;;;;;16.20;10.85;;;;;;;;;;5080813;28;20024;-87
2023/09/16 07:36:58;;;;;;;18.83;10.18;;;;;;;;;;5080980;28;20029;-87
2023/09/16 07:39:50;;;;;;;16.83;11.63;;;;;;;;;;5068567;28;20032;-88
2023/09/16 07:42:16;;;;;;;77.85;66.05;;;;;;;;;;5073650;28;20024;-87
2023/09/16 07:44:42;;;;;;;23.63;21.13;;;;;;;;;;5079765;28;20422;-86
2023/09/16 07:47:08;;;;;;;18.33;11.00;;;;;;;;;;5060109;28;20067;-88
2023/09/16 07:49:35;;;;;;;18.10;16.17;;;;;;;;;;5060857;28;20029;-88
2023/09/16 07:52:01;;;;;;;21.05;17.17;;;;;;;;;;5058979;28;20331;-88
2023/09/16 07:54:27;;;;;;;20.38;13.60;;;;;;;;;;5059456;28;20025;-88
2023/09/16 07:56:53;;;;;;;13.20;10.38;;;;;;;;;;5059335;28;20032;-88
2023/09/16 07:59:20;;;;;;;15.57;12.20;;;;;;;;;;5058948;28;20139;-89
2023/09/16 08:01:46;;;;;;;10.63;9.13;;;;;;;;;;5059341;28;20027;-86
2023/09/16 08:04:13;;;;;;;12.82;8.85;;;;;;;;;;5058892;28;20498;-88
2023/09/16 08:06:39;;;;;;;16.58;13.27;;;;;;;;;;5060106;28;20037;-86
2023/09/16 08:09:05;;;;;;;15.85;12.25;;;;;;;;;;5060188;28;20029;-88
2023/09/16 08:11:31;;;;;;;16.50;11.10;;;;;;;;;;5059984;28;20029;-86
2023/09/16 08:13:57;;;;;;;15.20;10.30;;;;;;;;;;5059511;28;20044;-84
2023/09/16 08:16:23;;;;;;;11.93;8.95;;;;;;;;;;5058530;28;20021;-87
2023/09/16 08:18:49;;;;;;;16.27;9.75;;;;;;;;;;5061812;28;20361;-83
2023/09/16 08:21:15;;;;;;;9.38;8.18;;;;;;;;;;5073566;28;20039;-85
2023/09/16 08:23:41;;;;;;;14.10;9.82;;;;;;;;;;5078271;28;20044;-84
2023/09/16 08:26:07;;;;;;;8.57;7.05;;;;;;;;;;5079676;28;20029;-88
2023/09/16 08:28:35;;;;;;;9.75;8.75;;;;;;;;;;5079758;28;20040;-86
2023/09/16 08:31:02;;;;;;;6.50;5.32;;;;;;;;;;5078825;28;20127;-87
2023/09/16 08:33:28;;;;;;;11.95;8.80;;;;;;;;;;5078911;28;20023;-86
2023/09/16 08:35:54;;;;;;;8.32;5.00;;;;;;;;;;5079838;28;20024;-86
2023/09/16 08:38:20;;;;;;;11.98;8.40;;;;;;;;;;5079688;28;20108;-86
2023/09/16 08:40:49;;;;;;;9.43;4.78;;;;;;;;;;5079334;28;20029;-87
2023/09/16 08:43:48;;;;;;;8.52;6.70;;;;;;;;;;5079512;28;20070;-85
2023/09/16 08:46:17;;;;;;;8.10;5.13;;;;;;;;;;5017888;28;20038;-86
2023/09/16 08:48:45;;;;;;;8.68;7.22;;;;;;;;;;5001231;28;20121;-92
2023/09/16 08:51:12;;;;;;;7.40;5.22;;;;;;;;;;5001368;28;20034;-85
2023/09/16 08:53:39;;;;;;;11.00;4.68;;;;;;;;;;5017837;28;20072;-87
2023/09/16 08:56:05;;;;;;;8.45;5.25;;;;;;;;;;5001389;28;20041;-87
2023/09/16 08:58:39;;;;;;;9.77;4.93;;;;;;;;;;5017937;28;20022;-87
2023/09/16 09:01:05;;;;;;;6.68;4.75;;;;;;;;;;5017867;28;20038;-88
2023/09/16 09:03:32;;;;;;;7.00;4.68;;;;;;;;;;5017869;28;20034;-88
2023/09/16 09:05:58;;;;;;;10.13;6.30;;;;;;;;;;5018084;28;20040;-94
2023/09/16 09:08:25;;;;;;;9.60;4.93;;;;;;;;;;5000611;28;20435;-91
2023/09/16 09:13:56;;;;;;;6.65;4.68;;;;;;;;;;5017714;28;20052;-92
2023/09/16 09:16:23;;;;;;;8.10;4.80;;;;;;;;;;5001370;28;20490;-93
2023/09/16 09:18:50;;;;;;;7.05;4.28;;;;;;;;;;4987978;28;20050;-91
2023/09/16 09:21:17;;;;;;;11.15;4.40;;;;;;;;;;5015787;28;20327;-92
2023/09/16 09:23:43;;;;;;;16.13;6.18;;;;;;;;;;5058960;28;20029;-91
2023/09/16 09:26:11;;;;;;;9.27;4.65;;;;;;;;;;5078009;28;20025;-92
2023/09/16 09:28:37;;;;;;;9.05;4.57;;;;;;;;;;5078837;28;20024;-94
2023/09/16 09:31:03;;;;;;;21.40;5.90;;;;;;;;;;5078472;28;20456;-93
2023/09/16 09:33:39;;;;;;;6.38;4.10;;;;;;;;;;5074683;28;20017;-92
2023/09/16 09:36:11;;;;;;;14.63;5.25;;;;;;;;;;5058718;28;20109;-94
2023/09/16 09:38:41;;;;;;;23.73;6.60;;;;;;;;;;5058653;28;20461;-93
2023/09/16 09:41:07;;;;;;;28.92;6.75;;;;;;;;;;5072019;28;20359;-91
2023/09/16 09:43:33;;;;;;;12.95;5.30;;;;;;;;;;5077601;28;20036;-88
2023/09/16 09:45:59;;;;;;;23.67;6.13;;;;;;;;;;5071344;28;20020;-85
2023/09/16 09:48:25;;;;;;;19.85;6.10;;;;;;;;;;5065223;28;20031;-85
2023/09/16 09:50:52;;;;;;;17.50;4.93;;;;;;;;;;5077953;28;20037;-85
2023/09/16 09:53:18;;;;;;;14.75;6.15;;;;;;;;;;5062137;28;20028;-85
2023/09/16 09:55:44;;;;;;;9.25;3.40;;;;;;;;;;5067972;28;20025;-84
2023/09/16 09:58:10;;;;;;;16.85;5.70;;;;;;;;;;5059951;28;20052;-85
2023/09/16 10:00:36;;;;;;;22.15;6.80;;;;;;;;;;5062903;28;20065;-85
2023/09/16 10:03:02;;;;;;;10.68;5.05;;;;;;;;;;5067357;28;20033;-86
2023/09/16 10:05:36;;;;;;;19.50;5.63;;;;;;;;;;5072908;28;20455;-86
2023/09/16 10:08:02;;;;;;;15.65;5.65;;;;;;;;;;5065271;28;20418;-86
2023/09/16 10:10:31;;;;;;;16.92;5.80;;;;;;;;;;5076646;28;20037;-85
2023/09/16 10:12:57;;;;;;;11.05;4.25;;;;;;;;;;5066589;28;20049;-86
2023/09/16 10:15:28;;;;;;;5.88;3.80;;;;;;;;;;5060290;28;20083;-86
2023/09/16 10:17:56;;;;;;;10.43;4.30;;;;;;;;;;5064501;28;20027;-86
2023/09/16 10:20:22;;;;;;;12.00;4.25;;;;;;;;;;5065329;28;20051;-86
2023/09/16 10:22:48;;;;;;;8.98;4.15;;;;;;;;;;5074396;28;20074;-86
2023/09/16 10:25:15;;;;;;;5.10;3.20;;;;;;;;;;5077303;28;20047;-86
2023/09/16 10:27:48;;;;;;;7.10;3.47;;;;;;;;;;5072308;28;20435;-83
2023/09/16 10:30:14;;;;;;;7.30;3.67;;;;;;;;;;5077158;28;20028;-85
2023/09/16 10:32:41;;;;;;;7.97;3.92;;;;;;;;;;5076508;28;20036;-85
2023/09/16 10:35:07;;;;;;;13.82;4.60;;;;;;;;;;5075635;28;20021;-85
2023/09/16 10:37:34;;;;;;;7.40;3.70;;;;;;;;;;5073918;28;20426;-85
2023/09/16 10:40:32;;;;;;;5.50;3.50;;;;;;;;;;5057065;28;20052;-85
2023/09/16 10:42:59;;;;;;;9.90;3.90;;;;;;;;;;5057661;28;20044;-86
2023/09/16 10:45:26;;;;;;;5.50;3.40;;;;;;;;;;5068981;28;20029;-87
2023/09/16 10:47:55;;;;;;;5.20;3.20;;;;;;;;;;5060176;28;20033;-85
2023/09/16 10:50:25;;;;;;;9.73;4.85;;;;;;;;;;5064901;28;20040;-85
2023/09/16 10:53:12;;;;;;;5.20;3.40;;;;;;;;;;5059749;28;20029;-86
2023/09/16 10:55:56;;;;;;;7.68;3.50;;;;;;;;;;5056789;28;20028;-79
2023/09/16 10:58:32;;;;;;;7.65;3.42;;;;;;;;;;5056770;28;20020;-78
2023/09/16 11:00:59;;;;;;;9.55;4.18;;;;;;;;;;5065777;28;20028;-78
2023/09/16 11:03:29;;;;;;;6.13;3.67;;;;;;;;;;5076889;28;20031;-78
2023/09/16 11:05:57;;;;;;;8.07;3.55;;;;;;;;;;5069056;28;20036;-78
2023/09/16 11:08:24;;;;;;;5.70;3.28;;;;;;;;;;5076483;28;20479;-79
2023/09/16 11:10:50;;;;;;;6.65;3.30;;;;;;;;;;5076540;28;20029;-78
2023/09/16 11:13:17;;;;;;;7.10;3.13;;;;;;;;;;5064554;28;20055;-78
2023/09/16 11:15:46;;;;;;;8.60;3.50;;;;;;;;;;5056355;28;20083;-78
2023/09/16 11:18:16;;;;;;;4.72;3.08;;;;;;;;;;5056566;28;20025;-78
2023/09/16 11:20:42;;;;;;;7.68;3.42;;;;;;;;;;5056491;28;20033;-78
2023/09/16 11:23:09;;;;;;;6.20;2.97;;;;;;;;;;5056551;28;20081;-78
2023/09/16 11:25:45;;;;;;;8.23;3.83;;;;;;;;;;5067301;28;20013;-78
2023/09/16 11:28:15;;;;;;;6.45;3.60;;;;;;;;;;5058325;28;20067;-78
2023/09/16 11:30:46;;;;;;;7.97;3.15;;;;;;;;;;5060324;28;20099;-78
2023/09/16 11:33:12;;;;;;;;;;;;;;;;;;5075157;28;20307;-79
2023/09/16 11:35:38;;;;;;;7.82;3.78;;;;;;;;;;5060475;28;20306;-78
2023/09/16 11:38:04;;;;;;;6.03;4.05;;;;;;;;;;5072132;28;20128;-78
2023/09/16 11:40:32;;;;;;;6.53;3.58;;;;;;;;;;5075534;28;20033;-78
2023/09/16 11:42:59;;;;;;;8.68;4.30;;;;;;;;;;5068108;28;20051;-78
2023/09/16 11:45:26;;;;;;;8.18;3.63;;;;;;;;;;5059716;28;20300;-79
2023/09/16 11:47:52;;;;;;;8.05;3.63;;;;;;;;;;5068699;28;20044;-84
2023/09/16 11:50:25;;;;;;;7.45;3.55;;;;;;;;;;5059011;28;20411;-79
2023/09/16 11:52:51;;;;;;;5.45;3.63;;;;;;;;;;5070813;28;20032;-78
2023/09/16 11:55:18;;;;;;;6.43;2.88;;;;;;;;;;5069998;28;20048;-78
2023/09/16 11:57:48;;;;;;;4.38;2.92;;;;;;;;;;5061583;28;20023;-79
2023/09/16 12:00:15;;;;;;;11.17;4.67;;;;;;;;;;5065037;28;20418;-80
2023/09/16 12:02:41;;;;;;;6.85;3.78;;;;;;;;;;5059887;28;20071;-79
2023/09/16 12:05:08;;;;;;;6.13;3.05;;;;;;;;;;5063485;28;20028;-79
2023/09/16 12:07:36;;;;;;;9.68;3.92;;;;;;;;;;5059842;28;20125;-79
2023/09/16 12:10:02;;;;;;;5.72;3.22;;;;;;;;;;5063333;28;20051;-79
2023/09/16 12:12:29;;;;;;;5.75;3.28;;;;;;;;;;5060202;28;20414;-79
2023/09/16 12:14:59;;;;;;;7.00;3.35;;;;;;;;;;5065915;28;20123;-79
2023/09/16 12:17:26;;;;;;;6.57;3.30;;;;;;;;;;5074806;28;20101;-79
2023/09/16 12:19:56;;;;;;;7.45;3.85;;;;;;;;;;5059356;28;20095;-79
2023/09/16 12:22:23;;;;;;;7.28;3.55;;;;;;;;;;5059456;28;20024;-79
2023/09/16 12:24:54;;;;;;;8.32;3.10;;;;;;;;;;5059545;28;20071;-79
2023/09/16 12:27:20;;;;;;;5.82;2.83;;;;;;;;;;5058173;28;20323;-79
2023/09/16 12:29:46;;;;;;;7.40;2.67;;;;;;;;;;5059377;28;20021;-79
2023/09/16 12:32:14;;;;;;;6.40;3.10;;;;;;;;;;5059135;28;20112;-79
2023/09/16 12:34:41;;;;;;;5.00;2.70;;;;;;;;;;5059118;28;20040;-79
2023/09/16 12:37:07;;;;;;;5.78;3.72;;;;;;;;;;5059134;28;20066;-79
2023/09/16 12:39:34;;;;;;;6.35;3.25;;;;;;;;;;5059784;28;20029;-79
2023/09/16 12:42:04;;;;;;;11.05;3.15;;;;;;;;;;5070981;28;20489;-79
2023/09/16 12:44:31;;;;;;;19.08;3.40;;;;;;;;;;5070101;28;20032;-79
2023/09/16 12:46:58;;;;;;;8.77;3.65;;;;;;;;;;5074435;28;20028;-79
2023/09/16 12:49:24;;;;;;;5.70;2.70;;;;;;;;;;5075133;28;20043;-79
2023/09/16 12:52:03;;;;;;;6.97;3.03;;;;;;;;;;5059326;28;20035;-95
2023/09/16 12:57:19;;;;;;;6.75;3.28;;;;;;;;;;5168475;22;20094;-95
2023/09/16 12:59:46;;;;;;;5.95;3.55;;;;;;;;;;5039062;28;20029;-93
2023/09/16 13:02:14;;;;;;;5.05;3.13;;;;;;;;;;5029863;28;20029;-92
2023/09/16 13:04:40;;;;;;;6.60;3.40;;;;;;;;;;5111367;23;20057;-86
2023/09/16 13:07:06;;;;;;;5.78;3.47;;;;;;;;;;5059465;28;20021;-93
2023/09/16 13:09:32;;;;;;;8.00;3.20;;;;;;;;;;5042048;28;20029;-91
2023/09/16 13:11:58;;;;;;;4.75;3.33;;;;;;;;;;5040719;28;20021;-81
2023/09/16 13:14:26;;;;;;;4.97;3.20;;;;;;;;;;5058085;28;20017;-80
2023/09/16 13:16:52;;;;;;;7.10;3.00;;;;;;;;;;5042201;28;20052;-93
2023/09/16 13:19:21;;;;;;;6.28;3.22;;;;;;;;;;5041219;28;20415;-93
2023/09/16 13:21:48;;;;;;;3.30;3.00;;;;;;;;;;5053634;28;20311;-93
2023/09/16 13:24:14;;;;;;;4.28;2.72;;;;;;;;;;5041177;28;20025;-94
2023/09/16 13:29:44;;;;;;;6.18;2.92;;;;;;;;;;5070611;28;20039;-94
2023/09/16 13:32:11;;;;;;;6.13;2.88;;;;;;;;;;5044773;28;20350;-95
2023/09/16 13:34:41;;;;;;;4.30;3.65;;;;;;;;;;5041619;28;20029;-96
2023/09/16 13:37:07;;;;;;;4.53;3.63;;;;;;;;;;5058687;28;20426;-94
2023/09/16 13:39:43;;;;;;;6.30;3.60;;;;;;;;;;5041286;28;20353;-95
2023/09/16 13:45:24;;;;;;;11.38;4.22;;;;;;;;;;5064950;28;20024;-96
2023/09/16 13:48:31;;;;;;;8.32;3.58;;;;;;;;;;5061916;28;20044;-96
2023/09/16 13:51:02;;;;;;;6.72;3.75;;;;;;;;;;4987621;28;20039;-95
2023/09/16 13:53:29;;;;;;;5.47;3.58;;;;;;;;;;4987634;28;20078;-96
2023/09/16 13:56:15;;;;;;;7.97;3.80;;;;;;;;;;4971543;28;20031;-96
2023/09/16 13:58:49;;;;;;;6.40;5.25;;;;;;;;;;4977383;28;20106;-95
2023/09/16 14:03:45;;;;;;;14.25;4.60;;;;;;;;;;5090159;22;20061;-96
2023/09/16 14:06:12;;;;;;;8.35;4.28;;;;;;;;;;5055019;28;20029;-95
2023/09/16 14:08:40;;;;;;;5.80;3.42;;;;;;;;;;5036638;28;20037;-96
2023/09/16 14:11:06;;;;;;;7.75;4.15;;;;;;;;;;5042393;28;20132;-89
2023/09/16 14:13:32;;;;;;;4.22;3.83;;;;;;;;;;5038106;28;20017;-93
2023/09/16 14:15:59;;;;;;;5.25;3.70;;;;;;;;;;5038463;28;20029;-91
2023/09/16 14:18:25;;;;;;;12.80;3.83;;;;;;;;;;5038028;28;20022;-87
2023/09/16 14:20:51;;;;;;;13.40;5.15;;;;;;;;;;5020966;28;20438;-92
2023/09/16 14:23:18;;;;;;;17.98;4.40;;;;;;;;;;5038253;28;20116;-90
2023/09/16 14:25:44;;;;;;;9.70;3.60;;;;;;;;;;5037925;28;20510;-90
2023/09/16 14:28:10;;;;;;;7.63;3.67;;;;;;;;;;5020497;28;20025;-90
2023/09/16 14:30:36;;;;;;;6.55;3.78;;;;;;;;;;5038012;28;20040;-90
2023/09/16 14:33:04;;;;;;;8.13;4.03;;;;;;;;;;5020514;28;20045;-89
2023/09/16 14:35:33;;;;;;;4.00;3.38;;;;;;;;;;5020386;28;20028;-90
2023/09/16 14:38:03;;;;;;;7.30;3.78;;;;;;;;;;5037615;28;20399;-89
2023/09/16 14:40:29;;;;;;;6.95;4.50;;;;;;;;;;5020124;28;20037;-89
2023/09/16 14:42:55;;;;;;;6.25;4.18;;;;;;;;;;5037957;28;20026;-89
2023/09/16 14:45:21;;;;;;;8.45;3.90;;;;;;;;;;5020221;28;20118;-89
2023/09/16 14:47:48;;;;;;;6.93;3.70;;;;;;;;;;5020124;28;20021;-90
2023/09/16 14:50:16;;;;;;;8.10;5.85;;;;;;;;;;5037448;28;20071;-89
2023/09/16 14:52:42;;;;;;;9.65;5.22;;;;;;;;;;5019965;28;20481;-89
2023/09/16 14:55:09;;;;;;;4.93;4.50;;;;;;;;;;5037401;28;20049;-89
2023/09/16 14:57:36;;;;;;;9.27;4.63;;;;;;;;;;5037347;28;20033;-89
2023/09/16 15:00:05;;;;;;;5.55;4.43;;;;;;;;;;5037506;28;20033;-89
2023/09/16 15:02:31;;;;;;;5.43;4.38;;;;;;;;;;5020081;28;20045;-88
2023/09/16 15:04:57;;;;;;;7.13;5.07;;;;;;;;;;5037278;28;20045;-88
2023/09/16 15:07:23;;;;;;;5.85;4.57;;;;;;;;;;5037296;28;20029;-89
2023/09/16 15:09:52;;;;;;;12.15;5.18;;;;;;;;;;5037175;28;20025;-89